Ulah, Illinois
Current Conditions -  °F | °C
As of 4:52 AM on Friday 31 Oct 2014 (Local Time) from KMLI Reporting Station
Overcast Overcast  
Wind Chill: 31°   Ceiling: 4700
Heat Index: 41°   Visibility: 10mi
Dew Point: 25°   Wind: 25mph
Humidity: 53%   Direction: 320°NW
Pressure: 30.18"   Gusts: 37mph
Location:  41.3189°N, 90.1549°W
Report Text: KMLI 310952Z AUTO 32022G32KT 10SM BKN047 OVC055 05/M04 A3018 RMK AO2 PK WND 32032/0950 SLP224 T00501039 $
Loading
Personal Weather Stations






























Interactive Weather Map
Tropical Storm Tracking
New forecast layout! Learn more

10-Day Weather Forecast

Advertisements
Track Severe Weather on mobile